sensor_id;sensor_type;location;lat;lon;timestamp;P1;durP1;ratioP1;P2;durP2;ratioP2
21507;SDS011;10915;54.352;9.074;2022-07-30T00:02:16;9.93;;;4.20;;
21507;SDS011;10915;54.352;9.074;2022-07-30T00:04:43;8.37;;;4.20;;
21507;SDS011;10915;54.352;9.074;2022-07-30T00:07:09;10.67;;;4.50;;
21507;SDS011;10915;54.352;9.074;2022-07-30T00:09:35;9.93;;;4.70;;
21507;SDS011;10915;54.352;9.074;2022-07-30T00:12:01;12.47;;;4.93;;
21507;SDS011;10915;54.352;9.074;2022-07-30T00:14:26;8.37;;;4.90;;
21507;SDS011;10915;54.352;9.074;2022-07-30T00:16:52;11.83;;;4.50;;
21507;SDS011;10915;54.352;9.074;2022-07-30T00:19:18;8.77;;;4.30;;
21507;SDS011;10915;54.352;9.074;2022-07-30T00:21:44;10.03;;;4.63;;
21507;SDS011;10915;54.352;9.074;2022-07-30T00:24:10;10.27;;;4.53;;
21507;SDS011;10915;54.352;9.074;2022-07-30T00:26:36;11.73;;;5.27;;
21507;SDS011;10915;54.352;9.074;2022-07-30T00:29:02;10.20;;;5.17;;
21507;SDS011;10915;54.352;9.074;2022-07-30T00:31:28;11.13;;;5.13;;
21507;SDS011;10915;54.352;9.074;2022-07-30T00:33:54;14.80;;;5.40;;
21507;SDS011;10915;54.352;9.074;2022-07-30T00:36:20;10.47;;;5.03;;
21507;SDS011;10915;54.352;9.074;2022-07-30T00:38:46;9.13;;;4.90;;
21507;SDS011;10915;54.352;9.074;2022-07-30T00:41:12;10.63;;;5.13;;
21507;SDS011;10915;54.352;9.074;2022-07-30T00:43:38;12.33;;;5.67;;
21507;SDS011;10915;54.352;9.074;2022-07-30T00:46:03;13.73;;;5.50;;
21507;SDS011;10915;54.352;9.074;2022-07-30T00:48:29;11.17;;;5.07;;
21507;SDS011;10915;54.352;9.074;2022-07-30T00:50:55;11.27;;;5.17;;
21507;SDS011;10915;54.352;9.074;2022-07-30T00:53:20;10.97;;;5.40;;
21507;SDS011;10915;54.352;9.074;2022-07-30T00:55:46;10.37;;;5.27;;
21507;SDS011;10915;54.352;9.074;2022-07-30T00:58:12;10.03;;;5.43;;
21507;SDS011;10915;54.352;9.074;2022-07-30T01:00:37;8.50;;;5.40;;
21507;SDS011;10915;54.352;9.074;2022-07-30T01:03:03;12.47;;;5.47;;
21507;SDS011;10915;54.352;9.074;2022-07-30T01:05:29;11.53;;;5.60;;
21507;SDS011;10915;54.352;9.074;2022-07-30T01:07:55;12.90;;;5.27;;
21507;SDS011;10915;54.352;9.074;2022-07-30T01:10:20;13.00;;;5.43;;
21507;SDS011;10915;54.352;9.074;2022-07-30T01:12:46;8.77;;;5.00;;
21507;SDS011;10915;54.352;9.074;2022-07-30T01:15:13;9.53;;;5.17;;
21507;SDS011;10915;54.352;9.074;2022-07-30T01:17:39;12.60;;;5.50;;
21507;SDS011;10915;54.352;9.074;2022-07-30T01:20:06;15.13;;;5.77;;
21507;SDS011;10915;54.352;9.074;2022-07-30T01:28:24;9.10;;;5.17;;
21507;SDS011;10915;54.352;9.074;2022-07-30T01:30:54;12.03;;;5.80;;
21507;SDS011;10915;54.352;9.074;2022-07-30T01:33:22;11.73;;;6.23;;
21507;SDS011;10915;54.352;9.074;2022-07-30T01:35:49;10.50;;;5.70;;
21507;SDS011;10915;54.352;9.074;2022-07-30T01:38:17;12.80;;;5.77;;
21507;SDS011;10915;54.352;9.074;2022-07-30T01:40:46;14.27;;;6.20;;
21507;SDS011;10915;54.352;9.074;2022-07-30T01:43:13;11.50;;;5.77;;
21507;SDS011;10915;54.352;9.074;2022-07-30T01:45:41;12.27;;;5.90;;
21507;SDS011;10915;54.352;9.074;2022-07-30T01:48:08;14.20;;;6.30;;
21507;SDS011;10915;54.352;9.074;2022-07-30T01:50:37;12.53;;;5.47;;
21507;SDS011;10915;54.352;9.074;2022-07-30T01:53:08;11.37;;;6.00;;
21507;SDS011;10915;54.352;9.074;2022-07-30T01:55:35;13.40;;;6.10;;
21507;SDS011;10915;54.352;9.074;2022-07-30T01:58:04;13.53;;;6.27;;
21507;SDS011;10915;54.352;9.074;2022-07-30T02:00:31;12.07;;;6.20;;
21507;SDS011;10915;54.352;9.074;2022-07-30T02:03:01;13.43;;;6.03;;
21507;SDS011;10915;54.352;9.074;2022-07-30T02:05:29;15.70;;;6.27;;
21507;SDS011;10915;54.352;9.074;2022-07-30T02:08:00;11.17;;;6.53;;
21507;SDS011;10915;54.352;9.074;2022-07-30T02:10:28;12.70;;;6.53;;
21507;SDS011;10915;54.352;9.074;2022-07-30T02:12:58;17.30;;;6.90;;
21507;SDS011;10915;54.352;9.074;2022-07-30T02:18:39;14.17;;;6.50;;
21507;SDS011;10915;54.352;9.074;2022-07-30T02:21:28;11.73;;;6.73;;
21507;SDS011;10915;54.352;9.074;2022-07-30T02:24:05;13.27;;;6.90;;
21507;SDS011;10915;54.352;9.074;2022-07-30T02:26:36;12.63;;;6.50;;
21507;SDS011;10915;54.352;9.074;2022-07-30T02:29:03;15.20;;;6.70;;
21507;SDS011;10915;54.352;9.074;2022-07-30T02:31:30;16.03;;;6.90;;
21507;SDS011;10915;54.352;9.074;2022-07-30T02:33:58;16.17;;;7.50;;
21507;SDS011;10915;54.352;9.074;2022-07-30T02:36:26;14.63;;;7.17;;
21507;SDS011;10915;54.352;9.074;2022-07-30T02:38:53;15.00;;;7.87;;
21507;SDS011;10915;54.352;9.074;2022-07-30T02:41:21;15.97;;;8.37;;
21507;SDS011;10915;54.352;9.074;2022-07-30T02:43:48;16.37;;;7.23;;
21507;SDS011;10915;54.352;9.074;2022-07-30T02:46:16;14.50;;;8.00;;
21507;SDS011;10915;54.352;9.074;2022-07-30T02:48:43;9.37;;;5.93;;
21507;SDS011;10915;54.352;9.074;2022-07-30T02:51:10;7.73;;;5.23;;
21507;SDS011;10915;54.352;9.074;2022-07-30T02:53:40;10.20;;;5.40;;
21507;SDS011;10915;54.352;9.074;2022-07-30T02:56:09;21.27;;;7.50;;
21507;SDS011;10915;54.352;9.074;2022-07-30T02:58:36;11.63;;;7.40;;
21507;SDS011;10915;54.352;9.074;2022-07-30T03:01:03;13.70;;;8.43;;
21507;SDS011;10915;54.352;9.074;2022-07-30T03:03:30;14.47;;;8.40;;
21507;SDS011;10915;54.352;9.074;2022-07-30T03:05:57;13.90;;;8.63;;
21507;SDS011;10915;54.352;9.074;2022-07-30T03:08:25;19.27;;;9.60;;
21507;SDS011;10915;54.352;9.074;2022-07-30T03:10:53;18.53;;;10.67;;
21507;SDS011;10915;54.352;9.074;2022-07-30T03:13:20;16.03;;;10.77;;
21507;SDS011;10915;54.352;9.074;2022-07-30T03:15:48;15.07;;;10.40;;
21507;SDS011;10915;54.352;9.074;2022-07-30T03:18:15;16.77;;;11.03;;
21507;SDS011;10915;54.352;9.074;2022-07-30T03:20:46;14.43;;;9.87;;
21507;SDS011;10915;54.352;9.074;2022-07-30T03:23:17;15.57;;;9.70;;
21507;SDS011;10915;54.352;9.074;2022-07-30T03:25:44;16.43;;;10.13;;
21507;SDS011;10915;54.352;9.074;2022-07-30T03:28:30;17.97;;;9.87;;
21507;SDS011;10915;54.352;9.074;2022-07-30T03:30:57;19.17;;;11.30;;
21507;SDS011;10915;54.352;9.074;2022-07-30T03:33:24;20.53;;;11.70;;
21507;SDS011;10915;54.352;9.074;2022-07-30T03:35:51;20.90;;;12.43;;
21507;SDS011;10915;54.352;9.074;2022-07-30T03:38:17;21.43;;;12.40;;
21507;SDS011;10915;54.352;9.074;2022-07-30T03:40:44;24.57;;;12.30;;
21507;SDS011;10915;54.352;9.074;2022-07-30T03:43:10;24.30;;;12.97;;
21507;SDS011;10915;54.352;9.074;2022-07-30T03:45:37;21.30;;;12.63;;
21507;SDS011;10915;54.352;9.074;2022-07-30T03:48:06;22.00;;;12.10;;
21507;SDS011;10915;54.352;9.074;2022-07-30T03:50:34;21.63;;;11.40;;
21507;SDS011;10915;54.352;9.074;2022-07-30T03:53:01;15.73;;;11.63;;
21507;SDS011;10915;54.352;9.074;2022-07-30T03:55:29;30.33;;;11.93;;
21507;SDS011;10915;54.352;9.074;2022-07-30T03:57:55;22.60;;;12.37;;
21507;SDS011;10915;54.352;9.074;2022-07-30T04:00:21;17.43;;;12.30;;
21507;SDS011;10915;54.352;9.074;2022-07-30T04:02:47;16.50;;;11.23;;
21507;SDS011;10915;54.352;9.074;2022-07-30T04:05:14;17.57;;;11.20;;
21507;SDS011;10915;54.352;9.074;2022-07-30T04:07:41;20.60;;;11.17;;
21507;SDS011;10915;54.352;9.074;2022-07-30T04:10:08;17.97;;;11.87;;
21507;SDS011;10915;54.352;9.074;2022-07-30T04:12:34;19.97;;;11.30;;
21507;SDS011;10915;54.352;9.074;2022-07-30T04:15:00;20.27;;;11.53;;
21507;SDS011;10915;54.352;9.074;2022-07-30T04:17:34;17.77;;;11.30;;
21507;SDS011;10915;54.352;9.074;2022-07-30T04:20:22;18.93;;;11.90;;
21507;SDS011;10915;54.352;9.074;2022-07-30T04:22:55;18.97;;;11.20;;
21507;SDS011;10915;54.352;9.074;2022-07-30T04:25:22;20.33;;;11.90;;
21507;SDS011;10915;54.352;9.074;2022-07-30T04:27:49;19.13;;;11.13;;
21507;SDS011;10915;54.352;9.074;2022-07-30T04:30:15;19.03;;;11.30;;
21507;SDS011;10915;54.352;9.074;2022-07-30T04:32:41;22.07;;;12.07;;
21507;SDS011;10915;54.352;9.074;2022-07-30T04:35:08;21.40;;;12.40;;
21507;SDS011;10915;54.352;9.074;2022-07-30T04:37:34;19.83;;;12.93;;
21507;SDS011;10915;54.352;9.074;2022-07-30T04:39:59;25.87;;;12.87;;
21507;SDS011;10915;54.352;9.074;2022-07-30T04:42:26;21.37;;;12.70;;
21507;SDS011;10915;54.352;9.074;2022-07-30T04:44:52;20.70;;;13.13;;
21507;SDS011;10915;54.352;9.074;2022-07-30T04:47:19;19.30;;;13.47;;
21507;SDS011;10915;54.352;9.074;2022-07-30T04:49:45;17.67;;;13.17;;
21507;SDS011;10915;54.352;9.074;2022-07-30T04:52:12;18.87;;;11.87;;
21507;SDS011;10915;54.352;9.074;2022-07-30T04:54:43;20.87;;;12.50;;
21507;SDS011;10915;54.352;9.074;2022-07-30T04:57:28;21.20;;;13.03;;
21507;SDS011;10915;54.352;9.074;2022-07-30T04:59:55;22.17;;;12.50;;
21507;SDS011;10915;54.352;9.074;2022-07-30T05:02:24;22.73;;;12.93;;
21507;SDS011;10915;54.352;9.074;2022-07-30T05:04:53;22.13;;;12.83;;
21507;SDS011;10915;54.352;9.074;2022-07-30T05:07:21;18.03;;;11.67;;
21507;SDS011;10915;54.352;9.074;2022-07-30T05:09:48;18.13;;;12.10;;
21507;SDS011;10915;54.352;9.074;2022-07-30T05:12:13;19.00;;;12.70;;
21507;SDS011;10915;54.352;9.074;2022-07-30T05:14:40;22.60;;;12.27;;
21507;SDS011;10915;54.352;9.074;2022-07-30T05:17:06;22.93;;;11.90;;
21507;SDS011;10915;54.352;9.074;2022-07-30T05:19:31;19.07;;;11.10;;
21507;SDS011;10915;54.352;9.074;2022-07-30T05:21:57;19.27;;;11.03;;
21507;SDS011;10915;54.352;9.074;2022-07-30T05:24:23;15.80;;;11.63;;
21507;SDS011;10915;54.352;9.074;2022-07-30T05:26:49;19.30;;;11.70;;
21507;SDS011;10915;54.352;9.074;2022-07-30T05:29:14;15.03;;;10.33;;
21507;SDS011;10915;54.352;9.074;2022-07-30T05:31:40;20.60;;;11.20;;
21507;SDS011;10915;54.352;9.074;2022-07-30T05:34:06;20.47;;;10.63;;
21507;SDS011;10915;54.352;9.074;2022-07-30T05:36:32;17.90;;;9.83;;
21507;SDS011;10915;54.352;9.074;2022-07-30T05:38:57;20.43;;;10.33;;
21507;SDS011;10915;54.352;9.074;2022-07-30T05:41:24;14.60;;;9.77;;
21507;SDS011;10915;54.352;9.074;2022-07-30T05:43:51;16.33;;;9.73;;
21507;SDS011;10915;54.352;9.074;2022-07-30T05:46:17;18.23;;;9.30;;
21507;SDS011;10915;54.352;9.074;2022-07-30T05:48:43;14.23;;;8.50;;
21507;SDS011;10915;54.352;9.074;2022-07-30T05:51:08;20.73;;;9.70;;
21507;SDS011;10915;54.352;9.074;2022-07-30T05:53:34;17.20;;;8.90;;
21507;SDS011;10915;54.352;9.074;2022-07-30T05:56:00;16.23;;;8.50;;
21507;SDS011;10915;54.352;9.074;2022-07-30T05:58:25;18.93;;;8.87;;
21507;SDS011;10915;54.352;9.074;2022-07-30T06:00:51;19.23;;;8.30;;
21507;SDS011;10915;54.352;9.074;2022-07-30T06:03:17;15.37;;;8.00;;
21507;SDS011;10915;54.352;9.074;2022-07-30T06:05:42;13.67;;;8.20;;
21507;SDS011;10915;54.352;9.074;2022-07-30T06:08:08;17.43;;;7.90;;
21507;SDS011;10915;54.352;9.074;2022-07-30T06:10:34;14.30;;;8.07;;
21507;SDS011;10915;54.352;9.074;2022-07-30T06:13:00;18.60;;;7.53;;
21507;SDS011;10915;54.352;9.074;2022-07-30T06:15:26;17.57;;;8.67;;
21507;SDS011;10915;54.352;9.074;2022-07-30T06:17:51;15.57;;;7.33;;
21507;SDS011;10915;54.352;9.074;2022-07-30T06:20:18;16.00;;;8.10;;
21507;SDS011;10915;54.352;9.074;2022-07-30T06:22:44;13.53;;;8.13;;
21507;SDS011;10915;54.352;9.074;2022-07-30T06:25:10;15.10;;;7.53;;
21507;SDS011;10915;54.352;9.074;2022-07-30T06:27:36;10.40;;;6.47;;
21507;SDS011;10915;54.352;9.074;2022-07-30T06:30:02;9.57;;;7.10;;
21507;SDS011;10915;54.352;9.074;2022-07-30T06:32:30;17.33;;;6.73;;
21507;SDS011;10915;54.352;9.074;2022-07-30T06:34:56;10.60;;;6.80;;
21507;SDS011;10915;54.352;9.074;2022-07-30T06:37:22;16.67;;;7.57;;
21507;SDS011;10915;54.352;9.074;2022-07-30T06:39:48;12.60;;;6.53;;
21507;SDS011;10915;54.352;9.074;2022-07-30T06:42:13;13.57;;;6.43;;
21507;SDS011;10915;54.352;9.074;2022-07-30T06:44:39;9.70;;;6.80;;
21507;SDS011;10915;54.352;9.074;2022-07-30T06:47:05;12.10;;;7.07;;
21507;SDS011;10915;54.352;9.074;2022-07-30T06:49:31;12.57;;;6.63;;
21507;SDS011;10915;54.352;9.074;2022-07-30T06:51:57;11.03;;;6.90;;
21507;SDS011;10915;54.352;9.074;2022-07-30T06:54:23;13.10;;;6.37;;
21507;SDS011;10915;54.352;9.074;2022-07-30T06:56:49;13.60;;;6.73;;
21507;SDS011;10915;54.352;9.074;2022-07-30T06:59:14;13.90;;;7.00;;
21507;SDS011;10915;54.352;9.074;2022-07-30T07:01:40;11.37;;;5.83;;
21507;SDS011;10915;54.352;9.074;2022-07-30T07:04:06;14.40;;;6.23;;
21507;SDS011;10915;54.352;9.074;2022-07-30T07:06:32;13.00;;;6.93;;
21507;SDS011;10915;54.352;9.074;2022-07-30T07:08:59;15.73;;;6.03;;
21507;SDS011;10915;54.352;9.074;2022-07-30T07:11:24;13.67;;;6.30;;
21507;SDS011;10915;54.352;9.074;2022-07-30T07:13:50;10.87;;;5.90;;
21507;SDS011;10915;54.352;9.074;2022-07-30T07:16:16;10.67;;;5.93;;
21507;SDS011;10915;54.352;9.074;2022-07-30T07:18:45;12.87;;;5.60;;
21507;SDS011;10915;54.352;9.074;2022-07-30T07:21:12;13.67;;;5.97;;
21507;SDS011;10915;54.352;9.074;2022-07-30T07:23:41;13.97;;;5.57;;
21507;SDS011;10915;54.352;9.074;2022-07-30T07:26:06;9.30;;;5.77;;
21507;SDS011;10915;54.352;9.074;2022-07-30T07:28:32;12.13;;;6.57;;
21507;SDS011;10915;54.352;9.074;2022-07-30T07:30:58;11.33;;;5.17;;
21507;SDS011;10915;54.352;9.074;2022-07-30T07:33:23;14.37;;;6.10;;
21507;SDS011;10915;54.352;9.074;2022-07-30T07:35:49;9.93;;;5.30;;
21507;SDS011;10915;54.352;9.074;2022-07-30T07:38:18;11.23;;;5.57;;
21507;SDS011;10915;54.352;9.074;2022-07-30T07:40:44;13.43;;;5.10;;
21507;SDS011;10915;54.352;9.074;2022-07-30T07:43:11;11.27;;;4.47;;
21507;SDS011;10915;54.352;9.074;2022-07-30T07:45:37;14.13;;;5.63;;
21507;SDS011;10915;54.352;9.074;2022-07-30T07:48:03;11.47;;;5.10;;
21507;SDS011;10915;54.352;9.074;2022-07-30T07:50:29;17.13;;;5.87;;
21507;SDS011;10915;54.352;9.074;2022-07-30T07:52:55;10.07;;;5.63;;
21507;SDS011;10915;54.352;9.074;2022-07-30T07:55:20;11.00;;;5.77;;
21507;SDS011;10915;54.352;9.074;2022-07-30T07:57:47;10.33;;;5.00;;
21507;SDS011;10915;54.352;9.074;2022-07-30T08:00:13;13.57;;;4.90;;
21507;SDS011;10915;54.352;9.074;2022-07-30T08:02:39;15.20;;;5.67;;
21507;SDS011;10915;54.352;9.074;2022-07-30T08:05:05;11.50;;;4.40;;
21507;SDS011;10915;54.352;9.074;2022-07-30T08:07:32;6.00;;;3.47;;
21507;SDS011;10915;54.352;9.074;2022-07-30T08:09:58;6.00;;;3.80;;
21507;SDS011;10915;54.352;9.074;2022-07-30T08:12:23;7.23;;;4.60;;
21507;SDS011;10915;54.352;9.074;2022-07-30T08:14:49;11.97;;;4.80;;
21507;SDS011;10915;54.352;9.074;2022-07-30T08:17:15;5.87;;;3.87;;
21507;SDS011;10915;54.352;9.074;2022-07-30T08:19:41;12.20;;;4.60;;
21507;SDS011;10915;54.352;9.074;2022-07-30T08:22:06;10.03;;;4.63;;
21507;SDS011;10915;54.352;9.074;2022-07-30T08:24:32;13.03;;;3.90;;
21507;SDS011;10915;54.352;9.074;2022-07-30T08:26:58;10.23;;;4.00;;
21507;SDS011;10915;54.352;9.074;2022-07-30T08:29:24;8.20;;;3.77;;
21507;SDS011;10915;54.352;9.074;2022-07-30T08:31:49;7.20;;;3.67;;
21507;SDS011;10915;54.352;9.074;2022-07-30T08:34:15;9.33;;;4.30;;
21507;SDS011;10915;54.352;9.074;2022-07-30T08:36:42;10.43;;;4.07;;
21507;SDS011;10915;54.352;9.074;2022-07-30T15:36:42;31.83;;;7.63;;
21507;SDS011;10915;54.352;9.074;2022-07-30T15:41:43;9.75;;;3.75;;
21507;SDS011;10915;54.352;9.074;2022-07-30T15:44:09;7.00;;;2.42;;
21507;SDS011;10915;54.352;9.074;2022-07-30T15:46:34;3.20;;;2.07;;
21507;SDS011;10915;54.352;9.074;2022-07-30T15:49:00;3.53;;;1.97;;
21507;SDS011;10915;54.352;9.074;2022-07-30T15:51:26;4.13;;;2.33;;
21507;SDS011;10915;54.352;9.074;2022-07-30T15:53:52;3.83;;;1.83;;
21507;SDS011;10915;54.352;9.074;2022-07-30T15:56:17;2.73;;;1.73;;
21507;SDS011;10915;54.352;9.074;2022-07-30T15:58:43;5.83;;;2.17;;
21507;SDS011;10915;54.352;9.074;2022-07-30T16:01:09;6.80;;;1.77;;
21507;SDS011;10915;54.352;9.074;2022-07-30T16:03:34;6.00;;;2.20;;
21507;SDS011;10915;54.352;9.074;2022-07-30T16:06:00;4.83;;;1.70;;
21507;SDS011;10915;54.352;9.074;2022-07-30T16:08:26;2.73;;;1.43;;
21507;SDS011;10915;54.352;9.074;2022-07-30T16:10:51;3.57;;;1.67;;
21507;SDS011;10915;54.352;9.074;2022-07-30T16:13:17;4.63;;;1.80;;
21507;SDS011;10915;54.352;9.074;2022-07-30T16:15:43;3.33;;;1.37;;
21507;SDS011;10915;54.352;9.074;2022-07-30T16:18:09;3.83;;;1.50;;
21507;SDS011;10915;54.352;9.074;2022-07-30T16:20:34;5.93;;;1.90;;
21507;SDS011;10915;54.352;9.074;2022-07-30T16:23:00;4.20;;;1.73;;
21507;SDS011;10915;54.352;9.074;2022-07-30T16:25:26;3.40;;;1.77;;
21507;SDS011;10915;54.352;9.074;2022-07-30T16:27:51;6.30;;;2.70;;
21507;SDS011;10915;54.352;9.074;2022-07-30T16:30:17;10.10;;;3.90;;
21507;SDS011;10915;54.352;9.074;2022-07-30T16:32:43;7.77;;;2.90;;
21507;SDS011;10915;54.352;9.074;2022-07-30T16:35:08;8.50;;;3.30;;
21507;SDS011;10915;54.352;9.074;2022-07-30T16:37:34;48.27;;;16.30;;
21507;SDS011;10915;54.352;9.074;2022-07-30T16:39:59;72.43;;;26.67;;
21507;SDS011;10915;54.352;9.074;2022-07-30T16:42:25;21.93;;;6.93;;
21507;SDS011;10915;54.352;9.074;2022-07-30T16:44:51;12.17;;;4.30;;
21507;SDS011;10915;54.352;9.074;2022-07-30T16:47:16;29.43;;;7.63;;
21507;SDS011;10915;54.352;9.074;2022-07-30T16:49:42;18.97;;;7.00;;
21507;SDS011;10915;54.352;9.074;2022-07-30T16:52:08;11.97;;;5.40;;
21507;SDS011;10915;54.352;9.074;2022-07-30T16:54:33;15.50;;;5.50;;
21507;SDS011;10915;54.352;9.074;2022-07-30T16:56:59;76.28;;;12.88;;
21507;SDS011;10915;54.352;9.074;2022-07-30T16:59:25;4.63;;;2.00;;
21507;SDS011;10915;54.352;9.074;2022-07-30T17:01:53;95.35;;;33.80;;
21507;SDS011;10915;54.352;9.074;2022-07-30T17:04:18;7.60;;;2.73;;
21507;SDS011;10915;54.352;9.074;2022-07-30T17:06:44;3.97;;;2.03;;
21507;SDS011;10915;54.352;9.074;2022-07-30T17:09:10;5.43;;;2.20;;
21507;SDS011;10915;54.352;9.074;2022-07-30T17:11:36;3.97;;;1.90;;
21507;SDS011;10915;54.352;9.074;2022-07-30T17:14:02;4.35;;;2.00;;
21507;SDS011;10915;54.352;9.074;2022-07-30T17:16:27;3.88;;;1.70;;
21507;SDS011;10915;54.352;9.074;2022-07-30T17:18:53;8.05;;;3.03;;
21507;SDS011;10915;54.352;9.074;2022-07-30T17:21:19;5.72;;;2.40;;
21507;SDS011;10915;54.352;9.074;2022-07-30T17:23:44;7.22;;;2.20;;
21507;SDS011;10915;54.352;9.074;2022-07-30T17:26:10;3.45;;;2.05;;
21507;SDS011;10915;54.352;9.074;2022-07-30T17:28:36;5.27;;;2.40;;
21507;SDS011;10915;54.352;9.074;2022-07-30T17:31:02;5.30;;;2.30;;
21507;SDS011;10915;54.352;9.074;2022-07-30T17:33:28;16.67;;;5.33;;
21507;SDS011;10915;54.352;9.074;2022-07-30T17:35:53;32.27;;;11.40;;
21507;SDS011;10915;54.352;9.074;2022-07-30T17:38:19;86.60;;;30.87;;
21507;SDS011;10915;54.352;9.074;2022-07-30T17:40:45;11.13;;;5.18;;
21507;SDS011;10915;54.352;9.074;2022-07-30T17:43:11;11.32;;;4.82;;
21507;SDS011;10915;54.352;9.074;2022-07-30T17:45:38;7.80;;;3.35;;
21507;SDS011;10915;54.352;9.074;2022-07-30T17:48:05;7.22;;;3.00;;
21507;SDS011;10915;54.352;9.074;2022-07-30T17:50:31;7.07;;;3.20;;
21507;SDS011;10915;54.352;9.074;2022-07-30T17:52:57;6.60;;;3.50;;
21507;SDS011;10915;54.352;9.074;2022-07-30T17:55:24;6.40;;;3.17;;
21507;SDS011;10915;54.352;9.074;2022-07-30T17:57:50;4.93;;;2.40;;
21507;SDS011;10915;54.352;9.074;2022-07-30T18:00:15;5.27;;;2.67;;
21507;SDS011;10915;54.352;9.074;2022-07-30T18:02:41;5.80;;;3.10;;
21507;SDS011;10915;54.352;9.074;2022-07-30T18:05:07;6.32;;;3.17;;
21507;SDS011;10915;54.352;9.074;2022-07-30T18:07:34;6.43;;;3.08;;
21507;SDS011;10915;54.352;9.074;2022-07-30T18:10:00;6.05;;;3.35;;
21507;SDS011;10915;54.352;9.074;2022-07-30T18:12:27;5.80;;;3.22;;
21507;SDS011;10915;54.352;9.074;2022-07-30T18:14:52;7.18;;;3.50;;
21507;SDS011;10915;54.352;9.074;2022-07-30T18:17:18;7.33;;;3.70;;
21507;SDS011;10915;54.352;9.074;2022-07-30T18:19:44;8.40;;;4.10;;
21507;SDS011;10915;54.352;9.074;2022-07-30T18:22:09;9.07;;;4.57;;
21507;SDS011;10915;54.352;9.074;2022-07-30T18:24:35;8.17;;;4.23;;
21507;SDS011;10915;54.352;9.074;2022-07-30T18:27:01;7.27;;;4.47;;
21507;SDS011;10915;54.352;9.074;2022-07-30T18:29:26;8.70;;;4.37;;
21507;SDS011;10915;54.352;9.074;2022-07-30T18:31:52;7.28;;;4.30;;
21507;SDS011;10915;54.352;9.074;2022-07-30T18:34:17;6.60;;;4.30;;
21507;SDS011;10915;54.352;9.074;2022-07-30T18:36:43;10.27;;;4.30;;
21507;SDS011;10915;54.352;9.074;2022-07-30T18:39:09;7.72;;;4.20;;
21507;SDS011;10915;54.352;9.074;2022-07-30T18:41:35;6.80;;;3.70;;
21507;SDS011;10915;54.352;9.074;2022-07-30T18:44:01;7.35;;;4.00;;
21507;SDS011;10915;54.352;9.074;2022-07-30T18:46:26;6.20;;;4.00;;
21507;SDS011;10915;54.352;9.074;2022-07-30T18:48:52;8.63;;;3.60;;
21507;SDS011;10915;54.352;9.074;2022-07-30T18:51:18;6.73;;;4.20;;
21507;SDS011;10915;54.352;9.074;2022-07-30T18:53:43;9.30;;;4.10;;
21507;SDS011;10915;54.352;9.074;2022-07-30T18:56:09;11.97;;;4.50;;
21507;SDS011;10915;54.352;9.074;2022-07-30T18:58:34;8.70;;;5.40;;
21507;SDS011;10915;54.352;9.074;2022-07-30T19:01:02;10.90;;;5.60;;
21507;SDS011;10915;54.352;9.074;2022-07-30T19:03:27;11.30;;;5.80;;
21507;SDS011;10915;54.352;9.074;2022-07-30T19:05:54;15.60;;;6.40;;
21507;SDS011;10915;54.352;9.074;2022-07-30T19:08:19;10.17;;;6.13;;
21507;SDS011;10915;54.352;9.074;2022-07-30T19:10:45;10.07;;;6.78;;
21507;SDS011;10915;54.352;9.074;2022-07-30T19:13:11;9.67;;;6.00;;
21507;SDS011;10915;54.352;9.074;2022-07-30T19:15:37;11.37;;;7.17;;
21507;SDS011;10915;54.352;9.074;2022-07-30T19:18:03;11.55;;;7.50;;
21507;SDS011;10915;54.352;9.074;2022-07-30T19:20:29;12.57;;;7.97;;
21507;SDS011;10915;54.352;9.074;2022-07-30T19:23:01;13.30;;;8.33;;
21507;SDS011;10915;54.352;9.074;2022-07-30T19:25:30;16.17;;;10.02;;
21507;SDS011;10915;54.352;9.074;2022-07-30T19:27:58;14.80;;;9.07;;
21507;SDS011;10915;54.352;9.074;2022-07-30T19:30:25;14.73;;;10.07;;
21507;SDS011;10915;54.352;9.074;2022-07-30T19:32:51;13.85;;;10.40;;
21507;SDS011;10915;54.352;9.074;2022-07-30T19:35:17;15.53;;;10.83;;
21507;SDS011;10915;54.352;9.074;2022-07-30T19:37:44;12.45;;;10.63;;
21507;SDS011;10915;54.352;9.074;2022-07-30T19:40:10;82.60;;;16.45;;
21507;SDS011;10915;54.352;9.074;2022-07-30T19:42:37;15.87;;;11.53;;
21507;SDS011;10915;54.352;9.074;2022-07-30T19:45:02;23.50;;;12.87;;
21507;SDS011;10915;54.352;9.074;2022-07-30T19:47:28;16.90;;;11.53;;
21507;SDS011;10915;54.352;9.074;2022-07-30T19:49:54;15.53;;;12.43;;
21507;SDS011;10915;54.352;9.074;2022-07-30T19:52:20;18.03;;;12.60;;
21507;SDS011;10915;54.352;9.074;2022-07-30T19:54:48;14.70;;;11.50;;
21507;SDS011;10915;54.352;9.074;2022-07-30T19:57:14;16.17;;;10.20;;
21507;SDS011;10915;54.352;9.074;2022-07-30T19:59:40;16.87;;;11.87;;
21507;SDS011;10915;54.352;9.074;2022-07-30T20:02:08;14.97;;;11.27;;
21507;SDS011;10915;54.352;9.074;2022-07-30T20:04:34;13.73;;;10.87;;
21507;SDS011;10915;54.352;9.074;2022-07-30T20:07:00;14.70;;;10.87;;
21507;SDS011;10915;54.352;9.074;2022-07-30T20:09:26;15.10;;;11.67;;
21507;SDS011;10915;54.352;9.074;2022-07-30T20:11:51;16.30;;;12.27;;
21507;SDS011;10915;54.352;9.074;2022-07-30T20:14:17;15.27;;;11.47;;
21507;SDS011;10915;54.352;9.074;2022-07-30T20:16:43;15.57;;;11.43;;
21507;SDS011;10915;54.352;9.074;2022-07-30T20:19:09;17.10;;;10.80;;
21507;SDS011;10915;54.352;9.074;2022-07-30T20:21:34;18.03;;;11.13;;
21507;SDS011;10915;54.352;9.074;2022-07-30T20:24:01;16.97;;;11.57;;
21507;SDS011;10915;54.352;9.074;2022-07-30T20:26:27;23.47;;;12.03;;
21507;SDS011;10915;54.352;9.074;2022-07-30T20:28:52;17.43;;;12.03;;
21507;SDS011;10915;54.352;9.074;2022-07-30T20:31:18;23.40;;;12.43;;
21507;SDS011;10915;54.352;9.074;2022-07-30T20:33:44;16.77;;;11.97;;
21507;SDS011;10915;54.352;9.074;2022-07-30T20:36:10;15.40;;;12.20;;
21507;SDS011;10915;54.352;9.074;2022-07-30T20:38:36;15.33;;;11.97;;
21507;SDS011;10915;54.352;9.074;2022-07-30T20:41:02;18.50;;;12.30;;
21507;SDS011;10915;54.352;9.074;2022-07-30T20:43:28;18.33;;;12.13;;
21507;SDS011;10915;54.352;9.074;2022-07-30T20:45:53;14.20;;;12.07;;
21507;SDS011;10915;54.352;9.074;2022-07-30T20:48:20;16.03;;;12.37;;
21507;SDS011;10915;54.352;9.074;2022-07-30T20:50:45;19.00;;;12.43;;
21507;SDS011;10915;54.352;9.074;2022-07-30T20:53:12;16.23;;;12.60;;
21507;SDS011;10915;54.352;9.074;2022-07-30T20:55:38;15.50;;;12.37;;
21507;SDS011;10915;54.352;9.074;2022-07-30T20:58:04;14.33;;;11.73;;
21507;SDS011;10915;54.352;9.074;2022-07-30T21:00:32;16.90;;;10.80;;
21507;SDS011;10915;54.352;9.074;2022-07-30T21:02:58;18.00;;;11.30;;
21507;SDS011;10915;54.352;9.074;2022-07-30T21:05:24;20.13;;;11.73;;
21507;SDS011;10915;54.352;9.074;2022-07-30T21:07:50;13.47;;;10.73;;
21507;SDS011;10915;54.352;9.074;2022-07-30T21:10:16;17.83;;;12.00;;
21507;SDS011;10915;54.352;9.074;2022-07-30T21:12:41;13.93;;;11.30;;
21507;SDS011;10915;54.352;9.074;2022-07-30T21:15:07;15.07;;;11.70;;
21507;SDS011;10915;54.352;9.074;2022-07-30T21:17:36;16.87;;;12.40;;
21507;SDS011;10915;54.352;9.074;2022-07-30T21:20:02;17.83;;;11.90;;
21507;SDS011;10915;54.352;9.074;2022-07-30T21:22:29;12.63;;;10.33;;
21507;SDS011;10915;54.352;9.074;2022-07-30T21:24:55;16.87;;;12.43;;
21507;SDS011;10915;54.352;9.074;2022-07-30T21:27:20;13.30;;;11.07;;
21507;SDS011;10915;54.352;9.074;2022-07-30T21:29:46;16.07;;;12.13;;
21507;SDS011;10915;54.352;9.074;2022-07-30T21:32:12;16.20;;;11.80;;
21507;SDS011;10915;54.352;9.074;2022-07-30T21:34:38;22.30;;;12.63;;
21507;SDS011;10915;54.352;9.074;2022-07-30T21:37:04;15.43;;;12.27;;
21507;SDS011;10915;54.352;9.074;2022-07-30T21:39:29;20.23;;;12.83;;